^^
Your Local Weather - Clay, NY Station Historical Data
Daily Summary for January 31, 2017 Units:  Metric    English   Both
« Previous Day
Next Day »
Daily Weekly Monthly Yearly Custom
  High: Low: Average:
Temperature: -4.3 °C -12.4 °C -7.3 °C
Dew Point: -6.3 °C -14.2 °C -9.2 °C
Humidity: 89% 82% 86%
Wind Speed: 8km/h 0km/h 3.2km/h
Wind Gust: 16.1km/h - -
Wind- - East
Pressure: 1013.4 hPa 1005 hPa -
Precipitation: 0.25 mm    
Historical Graphs
 
 
Tabular Data for January 31, 2017
Time Temperature Dew Point Pressure Wind Wind Speed Wind Gust Humidity Rainfall Rate (Hourly) solar
00:04 -9.8 °C -11.3 °C 1013.4 hPa Calm     89% 0 mm 0 W/m2
00:10 -9.8 °C -11.3 °C 1013.4 hPa Calm     89% 0 mm 0 W/m2
00:16 -9.7 °C -11.2 °C 1013.4 hPa Calm     89% 0 mm 0 W/m2
00:22 -9.7 °C -11.2 °C 1013.4 hPa Calm     89% 0 mm 0 W/m2
00:28 -9.7 °C -11.2 °C 1013.4 hPa Calm     89% 0 mm 0 W/m2
00:34 -9.7 °C -11.2 °C 1013.4 hPa Calm     89% 0 mm 0 W/m2
00:40 -9.7 °C -11.2 °C 1013.4 hPa Calm     89% 0 mm 0 W/m2
00:46 -9.7 °C -11.2 °C 1013.4 hPa Calm     89% 0 mm 0 W/m2
00:52 -9.6 °C -11.1 °C 1013.4 hPa Calm     89% 0 mm 0 W/m2
00:58 -9.4 °C -10.9 °C 1013.4 hPa Calm     89% 0 mm 0 W/m2
01:04 -9.3 °C -10.8 °C 1013.4 hPa Calm     89% 0 mm 0 W/m2
01:10 -9.2 °C -10.7 °C 1013.4 hPa Calm     89% 0 mm 0 W/m2
01:16 -9.1 °C -10.6 °C 1013.4 hPa Calm     89% 0 mm 0 W/m2
01:22 -8.9 °C -10.4 °C 1013.4 hPa Calm     89% 0 mm 0 W/m2
01:28 -8.8 °C -10.3 °C 1013.4 hPa Calm     89% 0 mm 0 W/m2
01:34 -8.7 °C -10.2 °C 1013.4 hPa Calm     89% 0 mm 0 W/m2
01:40 -8.6 °C -10.1 °C 1013.4 hPa Calm     89% 0 mm 0 W/m2
01:46 -8.5 °C -10 °C 1013.4 hPa Calm     89% 0 mm 0 W/m2
01:52 -8.6 °C -10.1 °C 1013.4 hPa Calm     89% 0 mm 0 W/m2
01:58 -8.6 °C -10.1 °C 1013.4 hPa Calm     89% 0 mm 0 W/m2
02:04 -8.6 °C -10.2 °C 1013.4 hPa Calm     88% 0 mm 0 W/m2
02:10 -8.6 °C -10.2 °C 1013.4 hPa Calm     88% 0 mm 0 W/m2
02:16 -8.6 °C -10.2 °C 1013.4 hPa Calm     88% 0 mm 0 W/m2
02:22 -8.8 °C -10.4 °C 1013.4 hPa Calm     88% 0 mm 0 W/m2
02:28 -9.1 °C -10.7 °C 1013.4 hPa Calm     88% 0 mm 0 W/m2
02:34 -9.6 °C -11.3 °C 1013.1 hPa Calm     87% 0 mm 0 W/m2
02:40 -9.9 °C -11.7 °C 1013.1 hPa Calm     87% 0 mm 0 W/m2
02:46 -10.3 °C -12.1 °C 1012.8 hPa Calm     87% 0 mm 0 W/m2
02:52 -10.7 °C -12.6 °C 1012.8 hPa Calm     86% 0 mm 0 W/m2
02:58 -11 °C -12.9 °C 1012.4 hPa Calm     86% 0 mm 0 W/m2
03:04 -11.2 °C -13.1 °C 1012.4 hPa Calm     86% 0 mm 0 W/m2
03:10 -11.4 °C -13.2 °C 1012.4 hPa Calm     87% 0 mm 0 W/m2
03:16 -11.6 °C -13.3 °C 1012.4 hPa Calm     87% 0 mm 0 W/m2
03:22 -11.7 °C -13.4 °C 1012.1 hPa Calm     87% 0 mm 0 W/m2
03:28 -11.7 °C -13.3 °C 1012.1 hPa Calm     88% 0 mm 0 W/m2
03:34 -11.3 °C -12.9 °C 1012.1 hPa Calm     88% 0 mm 0 W/m2
03:40 -11.4 °C -13.1 °C 1011.7 hPa Calm     88% 0 mm 0 W/m2
03:46 -11.6 °C -13.2 °C 1011.7 hPa Calm     88% 0 mm 0 W/m2
03:52 -11.8 °C -13.5 °C 1011.7 hPa Calm     87% 0 mm 0 W/m2
03:58 -11.9 °C -13.7 °C 1011.7 hPa Calm     87% 0 mm 0 W/m2
04:04 -12.1 °C -13.8 °C 1011.4 hPa Calm     87% 0 mm 0 W/m2
04:10 -12.2 °C -13.9 °C 1011.7 hPa Calm     87% 0 mm 0 W/m2
04:16 -12.2 °C -13.9 °C 1011.4 hPa Calm     87% 0 mm 0 W/m2
04:22 -12.3 °C -14 °C 1011.4 hPa Calm     87% 0 mm 0 W/m2
04:28 -12.4 °C -14 °C 1011.4 hPa Calm     88% 0 mm 0 W/m2
04:34 -12.4 °C -14.2 °C 1011.4 hPa Calm     87% 0 mm 0 W/m2
04:40 -12.4 °C -14 °C 1011.4 hPa Calm   1.6 km/h 88% 0 mm 0 W/m2
04:46 -12.1 °C -13.7 °C 1011.1 hPa Calm   1.6 km/h 88% 0 mm 0 W/m2
04:52 -11.7 °C -13.3 °C 1011.1 hPa East 1.6 km/h 1.6 km/h 88% 0 mm 0 W/m2
04:58 -11.5 °C -13.1 °C 1011.1 hPa East 1.6 km/h 3.2 km/h 88% 0 mm 0 W/m2
05:04 -11.4 °C -13.1 °C 1010.7 hPa East 1.6 km/h 1.6 km/h 88% 0 mm 0 W/m2
05:10 -11.6 °C -13.3 °C 1010.7 hPa East 1.6 km/h 1.6 km/h 87% 0 mm 0 W/m2
05:16 -11.4 °C -13 °C 1010.7 hPa East 1.6 km/h 3.2 km/h 88% 0 mm 0 W/m2
05:22 -11.2 °C -12.8 °C 1010.7 hPa Calm   1.6 km/h 88% 0 mm 0 W/m2
05:28 -11.5 °C -13.2 °C 1010.7 hPa Calm   1.6 km/h 87% 0 mm 0 W/m2
05:34 -11.8 °C -13.7 °C 1010.7 hPa Calm     86% 0 mm 0 W/m2
05:40 -12 °C -13.9 °C 1010.7 hPa Calm     86% 0 mm 0 W/m2
05:46 -11.9 °C -13.7 °C 1010.7 hPa Calm     87% 0 mm 0 W/m2
05:52 -12.1 °C -13.8 °C 1010.7 hPa Calm     87% 0 mm 0 W/m2
05:58 -12.2 °C -13.9 °C 1010.4 hPa Calm   1.6 km/h 87% 0 mm 0 W/m2
06:04 -12.3 °C -14.1 °C 1010.4 hPa East 1.6 km/h 3.2 km/h 87% 0 mm 0 W/m2
06:10 -12.1 °C -13.7 °C 1010.4 hPa East 1.6 km/h 1.6 km/h 88% 0 mm 0 W/m2
06:16 -12 °C -13.6 °C 1010.4 hPa East 1.6 km/h 1.6 km/h 88% 0 mm 0 W/m2
06:22 -11.7 °C -13.3 °C 1010.4 hPa ENE 1.6 km/h 4.8 km/h 88% 0 mm 0 W/m2
06:28 -11.4 °C -13.1 °C 1010 hPa East 1.6 km/h 4.8 km/h 88% 0 mm 0 W/m2
06:34 -11.2 °C -12.8 °C 1010 hPa East 1.6 km/h 1.6 km/h 88% 0 mm 0 W/m2
06:40 -11.2 °C -12.8 °C 1010 hPa East 1.6 km/h 3.2 km/h 88% 0 mm 0 W/m2
06:46 -11.1 °C -12.7 °C 1010 hPa ESE 1.6 km/h 3.2 km/h 88% 0 mm 0 W/m2
06:52 -11.1 °C -12.8 °C 1010 hPa East 1.6 km/h 3.2 km/h 87% 0 mm 0 W/m2
06:58 -11.1 °C -12.8 °C 1010 hPa ENE 1.6 km/h 4.8 km/h 87% 0 mm 0 W/m2
07:04 -11 °C -12.7 °C 1010 hPa East 1.6 km/h 4.8 km/h 87% 0 mm 0 W/m2
07:10 -10.9 °C -12.6 °C 1010 hPa ENE 3.2 km/h 6.4 km/h 87% 0 mm 0 W/m2
07:16 -10.8 °C -12.6 °C 1009.7 hPa East 3.2 km/h 6.4 km/h 87% 0 mm 0 W/m2
07:22 -10.8 °C -12.6 °C 1009.7 hPa East 3.2 km/h 8 km/h 87% 0 mm 0 W/m2
07:28 -10.8 °C -12.5 °C 1009.7 hPa East 3.2 km/h 8 km/h 87% 0 mm 0 W/m2
07:34 -10.7 °C -12.4 °C 1009.7 hPa ENE 3.2 km/h 4.8 km/h 87% 0 mm 7 W/m2
07:40 -10.7 °C -12.6 °C 1009.7 hPa ENE 3.2 km/h 3.2 km/h 86% 0 mm 14 W/m2
07:46 -10.6 °C -12.5 °C 1009.7 hPa ENE 3.2 km/h 3.2 km/h 86% 0 mm 18 W/m2
07:52 -10.6 °C -12.5 °C 1009.7 hPa ENE 3.2 km/h 4.8 km/h 86% 0 mm 26 W/m2
07:58 -10.6 °C -12.4 °C 1009.7 hPa ENE 3.2 km/h 4.8 km/h 86% 0 mm 35 W/m2
08:04 -10.4 °C -12.3 °C 1010 hPa East 1.6 km/h 3.2 km/h 86% 0 mm 33 W/m2
08:10 -10.4 °C -12.3 °C 1010 hPa ENE 3.2 km/h 8 km/h 86% 0 mm 42 W/m2
08:16 -10.3 °C -12.2 °C 1010 hPa ENE 3.2 km/h 8 km/h 86% 0 mm 44 W/m2
08:22 -10.2 °C -12.1 °C 1009.7 hPa ENE 3.2 km/h 4.8 km/h 86% 0 mm 42 W/m2
08:28 -10.2 °C -12.1 °C 1010 hPa East 3.2 km/h 4.8 km/h 86% 0 mm 49 W/m2
08:34 -10.1 °C -12 °C 1010 hPa ENE 1.6 km/h 4.8 km/h 86% 0 mm 46 W/m2
08:40 -10 °C -12.1 °C 1010 hPa East 3.2 km/h 4.8 km/h 85% 0 mm 60 W/m2
08:46 -9.8 °C -11.9 °C 1009.7 hPa NE 3.2 km/h 4.8 km/h 85% 0 mm 83 W/m2
08:52 -9.6 °C -11.7 °C 1009.7 hPa East 3.2 km/h 3.2 km/h 85% 0 mm 77 W/m2
08:58 -9.4 °C -11.4 °C 1009.7 hPa East 3.2 km/h 6.4 km/h 85% 0 mm 67 W/m2
09:04 -9.2 °C -11.4 °C 1009.7 hPa East 1.6 km/h 3.2 km/h 84% 0 mm 62 W/m2
09:10 -9.1 °C -11.3 °C 1010 hPa ESE 3.2 km/h 3.2 km/h 84% 0 mm 49 W/m2
09:16 -9.1 °C -11.4 °C 1009.7 hPa ESE 4.8 km/h 8 km/h 83% 0 mm 49 W/m2
09:22 -8.9 °C -11.1 °C 1009.7 hPa ENE 4.8 km/h 4.8 km/h 84% 0 mm 58 W/m2
09:28 -8.7 °C -11.1 °C 1009.7 hPa ENE 4.8 km/h 11.3 km/h 83% 0 mm 63 W/m2
09:34 -8.6 °C -10.8 °C 1009.7 hPa ENE 4.8 km/h 4.8 km/h 84% 0 mm 69 W/m2
09:40 -8.4 °C -10.6 °C 1009.7 hPa ENE 3.2 km/h 4.8 km/h 84% 0 mm 77 W/m2
09:46 -8.2 °C -10.4 °C 1009.4 hPa ENE 3.2 km/h 6.4 km/h 84% 0 mm 83 W/m2
09:52 -8.1 °C -10.3 °C 1009.4 hPa East 4.8 km/h 4.8 km/h 84% 0 mm 88 W/m2
09:58 -7.9 °C -10.2 °C 1009.4 hPa ENE 4.8 km/h 8 km/h 84% 0 mm 139 W/m2
10:04 -7.9 °C -10.3 °C 1009.4 hPa East 4.8 km/h 6.4 km/h 83% 0 mm 146 W/m2
10:10 -7.8 °C -10.1 °C 1009 hPa SE 4.8 km/h 4.8 km/h 84% 0 mm 146 W/m2
10:16 -7.7 °C -9.9 °C 1008.7 hPa NE 3.2 km/h 6.4 km/h 84% 0 mm 153 W/m2
10:22 -7.6 °C -9.8 °C 1008.7 hPa ENE 6.4 km/h 6.4 km/h 84% 0 mm 135 W/m2
10:28 -7.4 °C -9.6 °C 1008.4 hPa East 6.4 km/h 9.7 km/h 84% 0 mm 123 W/m2
10:34 -7.3 °C -9.6 °C 1008.4 hPa SE 4.8 km/h 6.4 km/h 84% 0 mm 137 W/m2
10:40 -7.2 °C -9.4 °C 1008 hPa ENE 4.8 km/h 4.8 km/h 84% 0 mm 165 W/m2
10:46 -7.1 °C -9.2 °C 1008 hPa ESE 4.8 km/h 11.3 km/h 85% 0 mm 167 W/m2
10:52 -6.9 °C -9 °C 1007.7 hPa NNE 6.4 km/h 6.4 km/h 85% 0 mm 162 W/m2
10:58 -6.7 °C -8.8 °C 1007.7 hPa ESE 6.4 km/h 6.4 km/h 85% 0 mm 162 W/m2
11:04 -6.6 °C -8.7 °C 1007.7 hPa East 6.4 km/h 12.9 km/h 85% 0 mm 155 W/m2
11:10 -6.6 °C -8.8 °C 1007.7 hPa ENE 8 km/h 8 km/h 84% 0 mm 113 W/m2
11:16 -6.6 °C -8.9 °C 1007.3 hPa ESE 8 km/h 16.1 km/h 84% 0 mm 81 W/m2
11:22 -6.6 °C -8.7 °C 1007.3 hPa East 6.4 km/h 6.4 km/h 85% 0 mm 74 W/m2
11:28 -6.7 °C -8.8 °C 1007 hPa East 4.8 km/h 6.4 km/h 85% 0 mm 70 W/m2
11:34 -6.7 °C -8.6 °C 1007 hPa ENE 4.8 km/h 14.5 km/h 86% 0 mm 69 W/m2
11:40 -6.7 °C -8.6 °C 1007 hPa East 6.4 km/h 9.7 km/h 86% 0 mm 84 W/m2
11:46 -6.6 °C -8.4 °C 1006.7 hPa ENE 4.8 km/h 9.7 km/h 87% 0 mm 77 W/m2
11:52 -6.6 °C -8.3 °C 1006.7 hPa ENE 4.8 km/h 12.9 km/h 87% 0 mm 79 W/m2
11:58 -6.6 °C -8.3 °C 1006.7 hPa ENE 6.4 km/h 12.9 km/h 87% 0 mm 93 W/m2
12:04 -6.5 °C -8.2 °C 1006.3 hPa ENE 6.4 km/h 6.4 km/h 88% 0 mm 120 W/m2
12:10 -6.4 °C -8.1 °C 1006 hPa ENE 6.4 km/h 6.4 km/h 88% 0 mm 181 W/m2
12:16 -6.2 °C -7.8 °C 1006 hPa ENE 6.4 km/h 8 km/h 88% 0 mm 236 W/m2
12:22 -6 °C -7.7 °C 1006 hPa ENE 6.4 km/h 11.3 km/h 88% 0 mm 221 W/m2
12:28 -5.8 °C -7.7 °C 1006 hPa ENE 6.4 km/h 11.3 km/h 87% 0 mm 200 W/m2
12:34 -5.7 °C -7.6 °C 1005.6 hPa East 6.4 km/h 12.9 km/h 87% 0 mm 197 W/m2
12:40 -5.6 °C -7.5 °C 1005.6 hPa East 6.4 km/h 6.4 km/h 86% 0 mm 227 W/m2
12:46 -5.5 °C -7.4 °C 1005.6 hPa ENE 6.4 km/h 8 km/h 86% 0 mm 271 W/m2
12:52 -5.3 °C -7.4 °C 1005.6 hPa NE 6.4 km/h 9.7 km/h 85% 0 mm 441 W/m2
12:58 -5.1 °C -7.3 °C 1005.3 hPa East 8 km/h 11.3 km/h 84% 0 mm 494 W/m2
13:04 -4.7 °C -7 °C 1005.3 hPa ESE 8 km/h 8 km/h 84% 0 mm 499 W/m2
13:10 -4.6 °C -7.1 °C 1005.3 hPa SE 6.4 km/h 6.4 km/h 83% 0 mm 489 W/m2
13:16 -4.6 °C -7.2 °C 1005.3 hPa ESE 6.4 km/h 8 km/h 82% 0 mm 243 W/m2
13:22 -4.6 °C -7.2 °C 1005.3 hPa ESE 6.4 km/h 8 km/h 82% 0 mm 248 W/m2
13:28 -4.7 °C -7.3 °C 1005 hPa ENE 6.4 km/h 16.1 km/h 82% 0 mm 202 W/m2
13:34 -4.8 °C -7.4 °C 1005 hPa East 8 km/h 8 km/h 82% 0 mm 190 W/m2
13:40 -4.7 °C -7.3 °C 1005 hPa East 8 km/h 11.3 km/h 82% 0 mm 199 W/m2
13:46 -4.6 °C -7.2 °C 1005 hPa ENE 6.4 km/h 11.3 km/h 82% 0 mm 183 W/m2
13:52 -4.7 °C -7.3 °C 1005 hPa NE 8 km/h 9.7 km/h 82% 0 mm 188 W/m2
13:58 -4.7 °C -7.3 °C 1005 hPa East 8 km/h 12.9 km/h 82% 0 mm 176 W/m2
14:04 -4.7 °C -7.3 °C 1005 hPa NE 8 km/h 8 km/h 82% 0 mm 162 W/m2
14:10 -4.7 °C -7.1 °C 1005 hPa SE 6.4 km/h 6.4 km/h 83% 0 mm 144 W/m2
14:16 -4.6 °C -7.1 °C 1005 hPa East 4.8 km/h 6.4 km/h 83% 0 mm 142 W/m2
14:22 -4.6 °C -7.2 °C 1005 hPa ENE 6.4 km/h 11.3 km/h 82% 0 mm 139 W/m2
14:28 -4.6 °C -7.2 °C 1005 hPa ENE 8 km/h 11.3 km/h 82% 0 mm 128 W/m2
14:34 -4.6 °C -7.2 °C 1005 hPa ENE 6.4 km/h 8 km/h 82% 0 mm 114 W/m2
14:40 -4.6 °C -7.1 °C 1005 hPa ENE 8 km/h 8 km/h 83% 0 mm 109 W/m2
14:46 -4.6 °C -7 °C 1005 hPa ESE 6.4 km/h 11.3 km/h 83% 0 mm 105 W/m2
14:52 -4.6 °C -7.1 °C 1005 hPa ENE 6.4 km/h 8 km/h 83% 0 mm 102 W/m2
14:58 -4.7 °C -7.1 °C 1005 hPa ESE 8 km/h 8 km/h 83% 0 mm 81 W/m2
15:04 -4.7 °C -6.9 °C 1005 hPa SSE 6.4 km/h 8 km/h 84% 0 mm 74 W/m2
15:10 -4.7 °C -6.9 °C 1005 hPa ENE 6.4 km/h 6.4 km/h 84% 0 mm 77 W/m2
15:16 -4.6 °C -6.9 °C 1005 hPa East 4.8 km/h 6.4 km/h 84% 0 mm 63 W/m2
15:22 -4.7 °C -6.9 °C 1005.3 hPa East 6.4 km/h 11.3 km/h 84% 0 mm 53 W/m2
15:28 -4.6 °C -6.9 °C 1005.3 hPa ESE 6.4 km/h 11.3 km/h 84% 0 mm 53 W/m2
15:34 -4.6 °C -6.7 °C 1005.3 hPa NE 4.8 km/h 11.3 km/h 85% 0 mm 56 W/m2
15:36 -4.6 °C -6.9 °C 1005.3 hPa SE 4.8 km/h 11.3 km/h 84% 0 mm 56 W/m2
15:42 -4.6 °C -6.9 °C 1005.3 hPa ENE 6.4 km/h 6.4 km/h 84% 0 mm 54 W/m2
15:48 -4.6 °C -6.7 °C 1005.3 hPa East 6.4 km/h 8 km/h 85% 0 mm 53 W/m2
15:54 -4.6 °C -6.7 °C 1005.6 hPa ENE 6.4 km/h 12.9 km/h 85% 0 mm 51 W/m2
16:00 -4.6 °C -6.7 °C 1005.6 hPa ESE 6.4 km/h 6.4 km/h 85% 0 mm 53 W/m2
16:06 -4.6 °C -6.7 °C 1005.6 hPa ENE 6.4 km/h 11.3 km/h 85% 0 mm 49 W/m2
16:12 -4.6 °C -6.7 °C 1005.6 hPa NE 6.4 km/h 9.7 km/h 85% 0 mm 49 W/m2
16:18 -4.6 °C -6.7 °C 1005.6 hPa East 6.4 km/h 9.7 km/h 85% 0 mm 44 W/m2
16:24 -4.6 °C -6.7 °C 1005.6 hPa ENE 6.4 km/h 11.3 km/h 85% 0 mm 40 W/m2
16:30 -4.6 °C -6.7 °C 1005.6 hPa ENE 6.4 km/h 6.4 km/h 85% 0 mm 37 W/m2
16:36 -4.5 °C -6.7 °C 1005.6 hPa SE 4.8 km/h 6.4 km/h 85% 0 mm 35 W/m2
16:42 -4.4 °C -6.6 °C 1006 hPa ESE 3.2 km/h 4.8 km/h 85% 0 mm 25 W/m2
16:48 -4.4 °C -6.6 °C 1006 hPa ENE 3.2 km/h 8 km/h 85% 0 mm 16 W/m2
16:54 -4.4 °C -6.6 °C 1006 hPa East 4.8 km/h 11.3 km/h 85% 0 mm 12 W/m2
17:00 -4.4 °C -6.6 °C 1006 hPa ENE 4.8 km/h 4.8 km/h 85% 0 mm 11 W/m2
17:06 -4.4 °C -6.6 °C 1006 hPa ENE 3.2 km/h 8 km/h 85% 0 mm 9 W/m2
17:12 -4.4 °C -6.6 °C 1006 hPa SE 4.8 km/h 6.4 km/h 85% 0 mm 5 W/m2
17:18 -4.4 °C -6.6 °C 1006 hPa East 4.8 km/h 6.4 km/h 85% 0 mm 0 W/m2
17:24 -4.4 °C -6.6 °C 1006 hPa ESE 4.8 km/h 12.9 km/h 85% 0 mm 0 W/m2
17:30 -4.4 °C -6.4 °C 1006 hPa ENE 4.8 km/h 11.3 km/h 86% 0 mm 0 W/m2
17:36 -4.4 °C -6.6 °C 1006.3 hPa ENE 6.4 km/h 11.3 km/h 85% 0 mm 0 W/m2
17:42 -4.3 °C -6.5 °C 1006.3 hPa ESE 4.8 km/h 4.8 km/h 85% 0 mm 0 W/m2
17:48 -4.3 °C -6.3 °C 1006.7 hPa East 4.8 km/h 4.8 km/h 86% 0 mm 0 W/m2
17:54 -4.4 °C -6.4 °C 1006.7 hPa SE 4.8 km/h 4.8 km/h 86% 0 mm 0 W/m2
18:00 -4.4 °C -6.4 °C 1006.7 hPa ENE 3.2 km/h 4.8 km/h 86% 0 mm 0 W/m2
18:06 -4.4 °C -6.3 °C 1006.7 hPa ENE 4.8 km/h 8 km/h 87% 0 mm 0 W/m2
18:12 -4.4 °C -6.3 °C 1006.7 hPa East 4.8 km/h 4.8 km/h 87% 0 mm 0 W/m2
18:18 -4.4 °C -6.3 °C 1007 hPa ESE 3.2 km/h 6.4 km/h 87% 0 mm 0 W/m2
18:24 -4.4 °C -6.3 °C 1007 hPa ENE 3.2 km/h 4.8 km/h 87% 0 mm 0 W/m2
18:30 -4.4 °C -6.3 °C 1007 hPa East 4.8 km/h 4.8 km/h 87% 0 mm 0 W/m2
18:36 -4.4 °C -6.3 °C 1007 hPa ENE 4.8 km/h 8 km/h 87% 0 mm 0 W/m2
18:42 -4.4 °C -6.3 °C 1007 hPa ENE 3.2 km/h 3.2 km/h 87% 0 mm 0 W/m2
18:48 -4.4 °C -6.3 °C 1007 hPa ENE 3.2 km/h 4.8 km/h 87% 0 mm 0 W/m2
18:54 -4.4 °C -6.3 °C 1007 hPa ESE 3.2 km/h 4.8 km/h 87% 0 mm 0 W/m2
19:00 -4.4 °C -6.3 °C 1007 hPa East 3.2 km/h 4.8 km/h 87% 0 mm 0 W/m2
19:06 -4.4 °C -6.3 °C 1007 hPa East 3.2 km/h 4.8 km/h 87% 0 mm 0 W/m2
19:12 -4.5 °C -6.3 °C 1007 hPa ENE 3.2 km/h 4.8 km/h 87% 0 mm 0 W/m2
19:18 -4.5 °C -6.3 °C 1007 hPa ENE 3.2 km/h 6.4 km/h 87% 0 mm 0 W/m2
19:24 -4.6 °C -6.6 °C 1007 hPa ENE 3.2 km/h 6.4 km/h 86% 0 mm 0 W/m2
19:30 -4.6 °C -6.6 °C 1007 hPa East 3.2 km/h 3.2 km/h 86% 0 mm 0 W/m2
19:36 -4.6 °C -6.6 °C 1007 hPa East 1.6 km/h 4.8 km/h 86% 0 mm 0 W/m2
19:42 -4.6 °C -6.6 °C 1007 hPa ENE 1.6 km/h 3.2 km/h 86% 0 mm 0 W/m2
19:48 -4.6 °C -6.6 °C 1007 hPa East 1.6 km/h 8 km/h 86% 0 mm 0 W/m2
19:54 -4.6 °C -6.6 °C 1007 hPa East 1.6 km/h 3.2 km/h 86% 0 mm 0 W/m2
20:00 -4.6 °C -6.6 °C 1007 hPa ENE 3.2 km/h 3.2 km/h 86% 0 mm 0 W/m2
20:06 -4.6 °C -6.6 °C 1007 hPa East 3.2 km/h 4.8 km/h 86% 0 mm 0 W/m2
20:12 -4.6 °C -6.4 °C 1007 hPa East 3.2 km/h 3.2 km/h 87% 0 mm 0 W/m2
20:18 -4.6 °C -6.4 °C 1007 hPa East 3.2 km/h 4.8 km/h 87% 0 mm 0 W/m2
20:24 -4.6 °C -6.6 °C 1007 hPa East 3.2 km/h 8 km/h 86% 0 mm 0 W/m2
20:30 -4.6 °C -6.6 °C 1007 hPa East 3.2 km/h 3.2 km/h 86% 0 mm 0 W/m2
20:36 -4.7 °C -6.7 °C 1007 hPa ENE 3.2 km/h 3.2 km/h 86% 0 mm 0 W/m2
20:42 -4.8 °C -6.8 °C 1006.7 hPa East 3.2 km/h 4.8 km/h 86% 0 mm 0 W/m2
20:48 -4.8 °C -6.8 °C 1006.7 hPa ENE 4.8 km/h 4.8 km/h 86% 0 mm 0 W/m2
20:54 -4.8 °C -6.8 °C 1006.7 hPa East 3.2 km/h 4.8 km/h 86% 0 mm 0 W/m2
21:00 -4.8 °C -6.8 °C 1006.7 hPa East 4.8 km/h 4.8 km/h 86% 0 mm 0 W/m2
21:06 -4.8 °C -6.8 °C 1006.7 hPa East 4.8 km/h 4.8 km/h 86% 0 mm 0 W/m2
21:12 -4.8 °C -6.8 °C 1006.7 hPa East 3.2 km/h 3.2 km/h 86% 0 mm 0 W/m2
21:18 -4.9 °C -6.9 °C 1006.7 hPa ESE 1.6 km/h 3.2 km/h 86% 0 mm 0 W/m2
21:24 -4.9 °C -6.9 °C 1006.7 hPa ESE 1.6 km/h 3.2 km/h 86% 0 mm 0 W/m2
21:30 -5 °C -7 °C 1006.7 hPa ESE 3.2 km/h 3.2 km/h 86% 0 mm 0 W/m2
21:36 -5.1 °C -7.1 °C 1006.7 hPa East 1.6 km/h 4.8 km/h 86% 0 mm 0 W/m2
21:42 -5.2 °C -7.2 °C 1006.3 hPa East 1.6 km/h 3.2 km/h 86% 0 mm 0 W/m2
21:48 -5.3 °C -7.3 °C 1006.3 hPa East 1.6 km/h 3.2 km/h 86% 0 mm 0 W/m2
21:54 -5.3 °C -7.1 °C 1006.3 hPa ENE 3.2 km/h 4.8 km/h 87% 0 mm 0 W/m2
22:00 -5.3 °C -7.2 °C 1006.3 hPa East 3.2 km/h 3.2 km/h 87% 0 mm 0 W/m2
22:06 -5.3 °C -7.2 °C 1006.3 hPa East 1.6 km/h 6.4 km/h 87% 0 mm 0 W/m2
22:12 -5.2 °C -7.1 °C 1006.3 hPa East 1.6 km/h 1.6 km/h 87% 0 mm 0 W/m2
22:18 -5.2 °C -7 °C 1006.3 hPa ESE 1.6 km/h 4.8 km/h 87% 0 mm 0 W/m2
22:24 -5.1 °C -6.9 °C 1006.3 hPa East 1.6 km/h 1.6 km/h 87% 0 mm 0 W/m2
22:30 -5.1 °C -6.9 °C 1006.3 hPa ENE 1.6 km/h 3.2 km/h 87% 0 mm 0 W/m2
22:36 -5 °C -6.8 °C 1006 hPa East 1.6 km/h 3.2 km/h 87% 0 mm 0 W/m2
22:42 -4.9 °C -6.8 °C 1006 hPa East 1.6 km/h 1.6 km/h 87% 0 mm 0 W/m2
22:48 -4.9 °C -6.8 °C 1006 hPa East 1.6 km/h 1.6 km/h 87% 0 mm 0 W/m2
22:54 -4.9 °C -6.7 °C 1006 hPa East 3.2 km/h 3.2 km/h 87% 0 mm 0 W/m2
23:00 -4.9 °C -6.6 °C 1006 hPa East 1.6 km/h 1.6 km/h 88% 0 mm 0 W/m2
23:06 -4.9 °C -6.6 °C 1006 hPa East 1.6 km/h 1.6 km/h 88% 0 mm 0 W/m2
23:12 -4.9 °C -6.6 °C 1006 hPa ESE 1.6 km/h 4.8 km/h 88% 0 mm 0 W/m2
23:18 -4.8 °C -6.5 °C 1006 hPa East 1.6 km/h 4.8 km/h 88% 0 mm 0 W/m2
23:24 -4.8 °C -6.5 °C 1006 hPa ENE 1.6 km/h 4.8 km/h 88% 0 mm 0 W/m2
23:30 -4.8 °C -6.5 °C 1006 hPa East 1.6 km/h 1.6 km/h 88% 0 mm 0 W/m2
23:36 -4.8 °C -6.4 °C 1005.6 hPa East 1.6 km/h 3.2 km/h 88% 0 mm 0 W/m2
23:42 -4.8 °C -6.3 °C 1005.6 hPa ENE 1.6 km/h 3.2 km/h 89% 0 mm 0 W/m2
23:48 -4.7 °C -6.3 °C 1005.6 hPa ENE 1.6 km/h 4.8 km/h 89% 0 mm 0 W/m2
23:54 -4.7 °C -6.3 °C 1005.6 hPa ENE 3.2 km/h 3.2 km/h 89% 0 mm 0 W/m2
Country Meadow, Clay, NY, USA
Compliments of Weather Underground - 2 mb